^ Back to Top

Niederschlagsradar DWD

© Deutscher Wetterdienst, Offenbach (DWD)

Aviation WX

[source: ADDS]
METAR
EDDN 250850Z 33003KT 290V360 9999 FEW008 OVC012 12/09 Q1015 NOSIG =
TAF
TAF EDDN 250500Z 2506/2606 VRB03KT 9999 SCT006 BKN014 BECMG 2506/2508 SCT015 BKN030 =
SR / SS: 03:19 / 19:05 UTC (ETHR 2016-05-25)